Preview of NWS' New Version of Forecast
This preview is not operational and should not be used for support decisions.

Terminal Aerodrome Forecast (TAF)

Issued by National Weather Service (NWS)

                            
000
FTUS42 KKEY 241739
TAFEYW
TAF
KEYW 241739Z 2418/2518 VRB05KT P6SM SCT025
     FM250300 13004KT P6SM FEW020
     FM251600 VRB03KT P6SM VCSH SCT020=